gordon.dewis.ca - Random musings from Gordon

Subscribe

A foggy evening in Ottawa

January 07, 2008 @ 18:44 By: gordon Category: Photography, Weather

METAR CYOW 072300Z 18004KT 0SM R07/1000FT/N R32/1000FT/N FG VV001 06/06 A2998 RMK FG8 SLP157=

Translation: It’s foggy in Ottawa.

I took a few photos on the way home from work. To see all the pictures, click here.

Leave a Reply

ERROR: si-captcha.php plugin: GD image support not detected in PHP!

Contact your web host and ask them to enable GD image support for PHP.

ERROR: si-captcha.php plugin: imagepng function not detected in PHP!

Contact your web host and ask them to enable imagepng for PHP.